createdAt,value
2018-09-06T00:10:00.560Z,9.8
2018-09-06T00:20:08.267Z,12.5
2018-09-06T00:30:26.838Z,10.2
2018-09-06T00:40:39.031Z,12.9
2018-09-06T00:50:43.557Z,11.5
2018-09-06T01:00:51.413Z,10.2
2018-09-06T01:10:58.404Z,10.6
2018-09-06T01:21:16.206Z,12.2
2018-09-06T01:31:30.793Z,16
2018-09-06T01:41:45.869Z,13.2
2018-09-06T01:51:51.197Z,22.1
2018-09-06T02:01:58.103Z,9.4
2018-09-06T02:12:00.161Z,11.5
2018-09-06T02:22:16.875Z,12.2
2018-09-06T02:32:21.868Z,10.6
2018-09-06T02:42:27.757Z,11.6
2018-09-06T02:52:28.222Z,12.2
2018-09-06T03:02:29.149Z,9.2
2018-09-06T03:12:34.538Z,10.8
2018-09-06T03:22:34.995Z,11.7
2018-09-06T03:32:47.534Z,11
2018-09-06T03:42:55.352Z,10.1
2018-09-06T03:52:55.690Z,10.7
2018-09-06T04:02:59.518Z,8.9
2018-09-06T04:12:59.411Z,8
2018-09-06T04:22:59.831Z,8
2018-09-06T04:33:02.316Z,11
2018-09-06T04:43:02.929Z,9.3
2018-09-06T04:53:03.980Z,8.6
2018-09-06T05:03:04.457Z,10.2
2018-09-06T05:13:04.172Z,10.6
2018-09-06T05:23:03.912Z,8.5
2018-09-06T05:33:16.711Z,10
2018-09-06T05:43:47.252Z,8.6
2018-09-06T05:54:04.195Z,8.3
2018-09-06T06:04:18.129Z,8.3
2018-09-06T06:14:39.382Z,9.3
2018-09-06T06:25:03.311Z,6.5
2018-09-06T06:35:29.807Z,6.4
2018-09-06T06:45:44.650Z,7.1
2018-09-06T06:56:05.757Z,7.2
2018-09-06T07:06:31.375Z,7.1
2018-09-06T07:16:59.235Z,7.1
2018-09-06T07:27:09.187Z,7.6
2018-09-06T07:37:22.955Z,5.6
2018-09-06T07:47:31.944Z,7.3
2018-09-06T07:57:46.231Z,6
2018-09-06T08:07:53.076Z,6.7
2018-09-06T08:17:55.275Z,6.4
2018-09-06T08:28:05.318Z,5.9
2018-09-06T08:38:16.864Z,6
2018-09-06T08:48:22.183Z,7.1
2018-09-06T08:58:38.224Z,7.9
2018-09-06T09:08:57.639Z,8
2018-09-06T09:19:11.546Z,7.2
2018-09-06T09:29:30.292Z,7.4
2018-09-06T09:39:49.127Z,7.7
2018-09-06T09:49:58.539Z,8.1
2018-09-06T10:00:13.810Z,8.3
2018-09-06T10:10:17.879Z,7.7
2018-09-06T10:20:23.551Z,7.1
2018-09-06T10:30:46.890Z,6.6
2018-09-06T10:40:57.344Z,8
2018-09-06T10:51:04.151Z,8.4
2018-09-06T11:01:14.643Z,8
2018-09-06T11:11:15.732Z,7.7
2018-09-06T11:21:19.052Z,8.5
2018-09-06T11:31:30.771Z,7.7
2018-09-06T11:41:30.912Z,7.7
2018-09-06T11:51:30.965Z,6.6
2018-09-06T12:01:30.990Z,8.3
2018-09-06T12:11:31.918Z,5.7
2018-09-06T12:21:32.054Z,6.2
2018-09-06T12:31:31.934Z,7.5
2018-09-06T12:41:36.465Z,5.5
2018-09-06T12:52:04.795Z,4.8
2018-09-06T13:02:21.680Z,6.4
2018-09-06T13:12:37.931Z,4.7
2018-09-06T13:22:58.235Z,5
2018-09-06T13:33:11.357Z,7.2
2018-09-06T13:43:15.485Z,8.3
2018-09-06T13:53:15.622Z,5.2
2018-09-06T14:03:23.914Z,5.4
2018-09-06T14:13:29.777Z,5.1
2018-09-06T14:23:37.538Z,5.2
2018-09-06T14:33:50.699Z,5.8
2018-09-06T14:43:56.129Z,5
2018-09-06T14:54:10.315Z,5.3
2018-09-06T15:04:38.486Z,5.3
2018-09-06T15:15:04.775Z,5.6
2018-09-06T15:25:31.425Z,6.1
2018-09-06T15:35:51.555Z,7.2
2018-09-06T15:46:17.473Z,7.1
2018-09-06T15:56:45.003Z,7.9
2018-09-06T16:06:50.340Z,7.7
2018-09-06T16:16:51.248Z,10
2018-09-06T16:26:58.336Z,7.7
2018-09-06T16:36:58.127Z,8.5
2018-09-06T16:46:59.091Z,7.7
2018-09-06T16:57:00.788Z,9.5
2018-09-06T17:07:04.070Z,8.3
2018-09-06T17:17:04.896Z,7.6
2018-09-06T17:27:05.919Z,5.1
2018-09-06T17:37:08.464Z,5.8
2018-09-06T17:47:10.050Z,3.7
2018-09-06T17:57:12.624Z,4
2018-09-06T18:07:13.182Z,5.2
2018-09-06T18:17:17.011Z,6.2
2018-09-06T18:27:22.168Z,4.3
2018-09-06T18:37:23.525Z,4.8
2018-09-06T18:47:24.632Z,3.9
2018-09-06T18:57:28.639Z,10.6
2018-09-06T19:07:29.776Z,4.6
2018-09-06T19:17:32.580Z,4.2
2018-09-06T19:27:32.657Z,3.5
2018-09-06T19:37:33.104Z,3.3
2018-09-06T19:47:43.251Z,5.6
2018-09-06T19:57:46.407Z,4
2018-09-06T20:07:47.529Z,3.4
2018-09-06T20:17:50.020Z,4.4
2018-09-06T20:27:57.733Z,3.8
2018-09-06T20:38:17.207Z,5.2
2018-09-06T20:48:27.830Z,4.4
2018-09-06T20:59:04.165Z,4.1
2018-09-06T21:09:31.266Z,4.6
2018-09-06T21:19:50.850Z,3.6
2018-09-06T21:30:14.139Z,4.1
2018-09-06T21:40:28.311Z,3.3
2018-09-06T21:50:36.988Z,3.4
2018-09-06T22:00:55.017Z,3.9
2018-09-06T22:11:19.060Z,3.7
2018-09-06T22:21:36.287Z,3.2
2018-09-06T22:32:04.356Z,3.2
2018-09-06T22:42:19.536Z,6
2018-09-06T22:52:32.398Z,4.1
2018-09-06T23:02:57.358Z,5.1
2018-09-06T23:13:17.496Z,4
2018-09-06T23:23:33.234Z,3.7
2018-09-06T23:34:00.681Z,3.1
2018-09-06T23:44:32.447Z,2.6
2018-09-06T23:54:57.498Z,3.7
